Terminal Aerodrome Forecast
Issued by NWS Jackson, MS

Home | Current Version | Previous Version | Text Only | Print | Product List | Glossary On
Versions: 1 2 3 4 5 6 7 8 9 10 11 12
000
FTUS44 KJAN 232352 RRA
TAFHBG
TAF
KHBG 232352Z 2400/2424 12005KT P6SM FEW040 SCT060 SCT120
     FM240900 12004KT 5SM BR OVC015
     FM241400 14010G20KT P6SM VCSH BKN025 BKN060
     FM241700 15012G21KT 6SM -SHRA VCTS BKN030CB BKN080=

USA.gov is the U.S. government's official web portal to all federal, state and local government web resources and services.